sensor_id;sensor_type;location;lat;lon;timestamp;pressure;altitude;pressure_sealevel;temperature;humidity
10706;BME280;5404;42.656;23.336;2023-05-02T00:01:56;95152.81;;;12.93;100.00
10706;BME280;5404;42.656;23.336;2023-05-02T00:04:21;95141.56;;;12.83;100.00
10706;BME280;5404;42.656;23.336;2023-05-02T00:06:47;95150.66;;;12.96;100.00
10706;BME280;5404;42.656;23.336;2023-05-02T00:09:12;95149.56;;;12.97;100.00
10706;BME280;5404;42.656;23.336;2023-05-02T00:11:39;95159.09;;;13.03;100.00
10706;BME280;5404;42.656;23.336;2023-05-02T00:14:05;95148.16;;;12.99;100.00
10706;BME280;5404;42.656;23.336;2023-05-02T00:16:31;95148.97;;;13.00;100.00
10706;BME280;5404;42.656;23.336;2023-05-02T00:18:57;95159.66;;;13.00;100.00
10706;BME280;5404;42.656;23.336;2023-05-02T00:21:22;95162.25;;;13.05;100.00
10706;BME280;5404;42.656;23.336;2023-05-02T00:23:50;95150.34;;;12.97;100.00
10706;BME280;5404;42.656;23.336;2023-05-02T00:26:15;95162.75;;;13.07;100.00
10706;BME280;5404;42.656;23.336;2023-05-02T00:28:40;94969.78;;;11.79;100.00
10706;BME280;5404;42.656;23.336;2023-05-02T00:31:06;95164.03;;;12.96;100.00
10706;BME280;5404;42.656;23.336;2023-05-02T00:33:31;95164.81;;;12.96;100.00
10706;BME280;5404;42.656;23.336;2023-05-02T00:35:57;95166.19;;;12.93;100.00
10706;BME280;5404;42.656;23.336;2023-05-02T00:38:22;95177.31;;;12.87;100.00
10706;BME280;5404;42.656;23.336;2023-05-02T00:40:50;95170.59;;;12.76;100.00
10706;BME280;5404;42.656;23.336;2023-05-02T00:43:16;95171.97;;;12.73;100.00
10706;BME280;5404;42.656;23.336;2023-05-02T00:45:43;95185.75;;;12.67;100.00
10706;BME280;5404;42.656;23.336;2023-05-02T00:48:10;95189.59;;;12.61;100.00
10706;BME280;5404;42.656;23.336;2023-05-02T00:50:41;95200.59;;;12.59;100.00
10706;BME280;5404;42.656;23.336;2023-05-02T00:53:08;95190.00;;;12.54;100.00
10706;BME280;5404;42.656;23.336;2023-05-02T00:55:34;95185.66;;;12.58;100.00
10706;BME280;5404;42.656;23.336;2023-05-02T00:58:02;95002.72;;;11.42;100.00
10706;BME280;5404;42.656;23.336;2023-05-02T01:00:45;95195.63;;;12.53;100.00
10706;BME280;5404;42.656;23.336;2023-05-02T01:14:34;95181.06;;;12.18;100.00
10706;BME280;5404;42.656;23.336;2023-05-02T01:17:06;95198.78;;;12.28;100.00
10706;BME280;5404;42.656;23.336;2023-05-02T01:19:40;95159.66;;;12.05;100.00
10706;BME280;5404;42.656;23.336;2023-05-02T01:22:08;95187.00;;;12.29;100.00
10706;BME280;5404;42.656;23.336;2023-05-02T01:24:44;95164.63;;;12.25;100.00
10706;BME280;5404;42.656;23.336;2023-05-02T01:30:07;95182.06;;;12.49;100.00
10706;BME280;5404;42.656;23.336;2023-05-02T01:32:36;95180.41;;;12.53;100.00
10706;BME280;5404;42.656;23.336;2023-05-02T01:35:04;95183.84;;;12.54;100.00
10706;BME280;5404;42.656;23.336;2023-05-02T01:37:31;95180.22;;;12.50;100.00
10706;BME280;5404;42.656;23.336;2023-05-02T01:39:59;95186.63;;;12.49;100.00
10706;BME280;5404;42.656;23.336;2023-05-02T01:42:26;95193.16;;;12.43;100.00
10706;BME280;5404;42.656;23.336;2023-05-02T01:44:53;95194.03;;;12.38;100.00
10706;BME280;5404;42.656;23.336;2023-05-02T01:47:20;95157.91;;;12.14;100.00
10706;BME280;5404;42.656;23.336;2023-05-02T01:49:47;95169.47;;;12.09;100.00
10706;BME280;5404;42.656;23.336;2023-05-02T01:52:13;95202.53;;;12.27;100.00
10706;BME280;5404;42.656;23.336;2023-05-02T01:54:39;95186.59;;;12.08;100.00
10706;BME280;5404;42.656;23.336;2023-05-02T01:57:07;95203.53;;;12.17;100.00
10706;BME280;5404;42.656;23.336;2023-05-02T01:59:34;95194.81;;;12.12;100.00
10706;BME280;5404;42.656;23.336;2023-05-02T02:02:01;95192.72;;;12.09;100.00
10706;BME280;5404;42.656;23.336;2023-05-02T02:04:29;95198.63;;;12.06;100.00
10706;BME280;5404;42.656;23.336;2023-05-02T02:07:02;95187.47;;;12.04;100.00
10706;BME280;5404;42.656;23.336;2023-05-02T02:09:29;95206.53;;;11.97;100.00
10706;BME280;5404;42.656;23.336;2023-05-02T02:12:02;95204.16;;;11.96;100.00
10706;BME280;5404;42.656;23.336;2023-05-02T02:14:36;95206.09;;;11.90;100.00
10706;BME280;5404;42.656;23.336;2023-05-02T02:17:08;95185.13;;;11.84;100.00
10706;BME280;5404;42.656;23.336;2023-05-02T02:19:36;95205.13;;;11.86;100.00
10706;BME280;5404;42.656;23.336;2023-05-02T02:22:05;95204.13;;;11.82;100.00
10706;BME280;5404;42.656;23.336;2023-05-02T02:24:34;95210.84;;;11.80;100.00
10706;BME280;5404;42.656;23.336;2023-05-02T02:27:00;95192.72;;;11.77;100.00
10706;BME280;5404;42.656;23.336;2023-05-02T02:29:27;95200.03;;;11.71;100.00
10706;BME280;5404;42.656;23.336;2023-05-02T02:31:53;95204.56;;;11.70;100.00
10706;BME280;5404;42.656;23.336;2023-05-02T02:34:19;95206.22;;;11.66;100.00
10706;BME280;5404;42.656;23.336;2023-05-02T02:36:59;95204.88;;;11.69;100.00
10706;BME280;5404;42.656;23.336;2023-05-02T02:42:36;95214.22;;;11.66;100.00
10706;BME280;5404;42.656;23.336;2023-05-02T02:48:18;95217.25;;;11.60;100.00
10706;BME280;5404;42.656;23.336;2023-05-02T02:51:08;95219.13;;;11.59;100.00
10706;BME280;5404;42.656;23.336;2023-05-02T02:56:18;95220.50;;;11.57;100.00
10706;BME280;5404;42.656;23.336;2023-05-02T02:59:00;95234.06;;;11.60;100.00
10706;BME280;5404;42.656;23.336;2023-05-02T03:01:31;95225.75;;;11.62;100.00
10706;BME280;5404;42.656;23.336;2023-05-02T03:03:57;95226.31;;;11.64;100.00
10706;BME280;5404;42.656;23.336;2023-05-02T03:06:23;95231.06;;;11.67;100.00
10706;BME280;5404;42.656;23.336;2023-05-02T03:08:51;95228.09;;;11.68;100.00
10706;BME280;5404;42.656;23.336;2023-05-02T03:11:16;95238.78;;;11.68;100.00
10706;BME280;5404;42.656;23.336;2023-05-02T03:13:42;95239.56;;;11.69;100.00
10706;BME280;5404;42.656;23.336;2023-05-02T03:16:59;95249.16;;;11.70;100.00
10706;BME280;5404;42.656;23.336;2023-05-02T03:19:17;95245.69;;;11.69;100.00
10706;BME280;5404;42.656;23.336;2023-05-02T03:21:43;95244.91;;;11.69;100.00
10706;BME280;5404;42.656;23.336;2023-05-02T03:24:08;95243.81;;;11.70;100.00
10706;BME280;5404;42.656;23.336;2023-05-02T03:26:34;95243.00;;;11.69;100.00
10706;BME280;5404;42.656;23.336;2023-05-02T03:28:59;95253.22;;;11.67;100.00
10706;BME280;5404;42.656;23.336;2023-05-02T03:31:24;95251.59;;;11.66;100.00
10706;BME280;5404;42.656;23.336;2023-05-02T03:33:50;95257.44;;;11.68;100.00
10706;BME280;5404;42.656;23.336;2023-05-02T03:36:16;95252.13;;;11.68;100.00
10706;BME280;5404;42.656;23.336;2023-05-02T03:38:42;95248.09;;;11.71;100.00
10706;BME280;5404;42.656;23.336;2023-05-02T03:41:07;95253.13;;;11.73;100.00
10706;BME280;5404;42.656;23.336;2023-05-02T03:43:32;95252.34;;;11.72;100.00
10706;BME280;5404;42.656;23.336;2023-05-02T03:46:04;95254.63;;;11.79;100.00
10706;BME280;5404;42.656;23.336;2023-05-02T03:48:30;95258.31;;;11.83;100.00
10706;BME280;5404;42.656;23.336;2023-05-02T03:50:55;95257.44;;;11.87;100.00
10706;BME280;5404;42.656;23.336;2023-05-02T03:53:21;95256.69;;;12.00;100.00
10706;BME280;5404;42.656;23.336;2023-05-02T03:55:46;95248.31;;;12.07;100.00
10706;BME280;5404;42.656;23.336;2023-05-02T03:58:12;95237.03;;;12.10;100.00
10706;BME280;5404;42.656;23.336;2023-05-02T04:00:37;95244.97;;;12.15;100.00
10706;BME280;5404;42.656;23.336;2023-05-02T04:03:03;95228.81;;;12.06;100.00
10706;BME280;5404;42.656;23.336;2023-05-02T04:05:29;95253.00;;;12.28;100.00
10706;BME280;5404;42.656;23.336;2023-05-02T04:07:55;95241.38;;;12.38;100.00
10706;BME280;5404;42.656;23.336;2023-05-02T04:10:21;95244.44;;;12.45;100.00
10706;BME280;5404;42.656;23.336;2023-05-02T04:12:46;95229.19;;;12.45;100.00
10706;BME280;5404;42.656;23.336;2023-05-02T04:15:11;95246.22;;;12.49;100.00
10706;BME280;5404;42.656;23.336;2023-05-02T04:17:37;95224.13;;;12.44;100.00
10706;BME280;5404;42.656;23.336;2023-05-02T04:20:04;95226.81;;;12.44;100.00
10706;BME280;5404;42.656;23.336;2023-05-02T04:22:30;95234.53;;;12.45;100.00
10706;BME280;5404;42.656;23.336;2023-05-02T04:24:55;95234.22;;;12.47;100.00
10706;BME280;5404;42.656;23.336;2023-05-02T04:27:21;95229.19;;;12.45;100.00
10706;BME280;5404;42.656;23.336;2023-05-02T04:29:47;95238.00;;;12.46;100.00
10706;BME280;5404;42.656;23.336;2023-05-02T04:32:13;95242.78;;;12.17;100.00
10706;BME280;5404;42.656;23.336;2023-05-02T04:34:38;95237.63;;;12.07;100.00
10706;BME280;5404;42.656;23.336;2023-05-02T04:37:04;95254.09;;;12.27;100.00
10706;BME280;5404;42.656;23.336;2023-05-02T04:39:29;95250.53;;;12.32;100.00
10706;BME280;5404;42.656;23.336;2023-05-02T04:41:55;95247.53;;;12.52;100.00
10706;BME280;5404;42.656;23.336;2023-05-02T04:44:20;95246.44;;;12.53;100.00
10706;BME280;5404;42.656;23.336;2023-05-02T04:46:46;95244.56;;;12.67;100.00
10706;BME280;5404;42.656;23.336;2023-05-02T04:49:11;95235.25;;;12.78;100.00
10706;BME280;5404;42.656;23.336;2023-05-02T04:51:36;95237.91;;;12.78;100.00
10706;BME280;5404;42.656;23.336;2023-05-02T04:54:02;95241.78;;;12.85;100.00
10706;BME280;5404;42.656;23.336;2023-05-02T04:56:27;95244.97;;;12.87;100.00
10706;BME280;5404;42.656;23.336;2023-05-02T04:58:53;95237.25;;;12.86;100.00
10706;BME280;5404;42.656;23.336;2023-05-02T05:01:18;95224.06;;;12.76;100.00
10706;BME280;5404;42.656;23.336;2023-05-02T05:03:44;95235.44;;;12.81;100.00
10706;BME280;5404;42.656;23.336;2023-05-02T05:06:09;95240.00;;;12.95;100.00
10706;BME280;5404;42.656;23.336;2023-05-02T05:08:35;95179.09;;;12.64;100.00
10706;BME280;5404;42.656;23.336;2023-05-02T05:11:00;95233.38;;;13.06;100.00
10706;BME280;5404;42.656;23.336;2023-05-02T05:13:26;95232.88;;;12.90;100.00
10706;BME280;5404;42.656;23.336;2023-05-02T05:15:52;95229.44;;;13.03;100.00
10706;BME280;5404;42.656;23.336;2023-05-02T05:18:18;95231.31;;;13.03;100.00
10706;BME280;5404;42.656;23.336;2023-05-02T05:20:43;95232.63;;;13.05;100.00
10706;BME280;5404;42.656;23.336;2023-05-02T05:23:10;95232.81;;;13.09;100.00
10706;BME280;5404;42.656;23.336;2023-05-02T05:25:35;95229.22;;;13.13;100.00
10706;BME280;5404;42.656;23.336;2023-05-02T05:28:02;95235.56;;;13.17;100.00
10706;BME280;5404;42.656;23.336;2023-05-02T05:30:27;95240.13;;;13.17;100.00
10706;BME280;5404;42.656;23.336;2023-05-02T05:32:55;95241.31;;;13.24;100.00
10706;BME280;5404;42.656;23.336;2023-05-02T05:35:21;95239.91;;;13.27;100.00
10706;BME280;5404;42.656;23.336;2023-05-02T05:37:46;95213.47;;;12.98;100.00
10706;BME280;5404;42.656;23.336;2023-05-02T05:40:12;95245.06;;;13.23;100.00
10706;BME280;5404;42.656;23.336;2023-05-02T05:42:37;95230.88;;;13.23;100.00
10706;BME280;5404;42.656;23.336;2023-05-02T05:45:03;95246.81;;;13.28;100.00
10706;BME280;5404;42.656;23.336;2023-05-02T05:47:28;95252.06;;;13.46;100.00
10706;BME280;5404;42.656;23.336;2023-05-02T05:49:55;95252.81;;;13.60;100.00
10706;BME280;5404;42.656;23.336;2023-05-02T05:52:25;95233.28;;;13.60;100.00
10706;BME280;5404;42.656;23.336;2023-05-02T05:54:54;95242.91;;;13.83;100.00
10706;BME280;5404;42.656;23.336;2023-05-02T05:57:20;95243.09;;;13.86;100.00
10706;BME280;5404;42.656;23.336;2023-05-02T05:59:48;95238.72;;;13.90;100.00
10706;BME280;5404;42.656;23.336;2023-05-02T06:02:13;95222.59;;;13.82;100.00
10706;BME280;5404;42.656;23.336;2023-05-02T06:04:40;95242.72;;;13.79;100.00
10706;BME280;5404;42.656;23.336;2023-05-02T06:07:05;95246.63;;;13.95;100.00
10706;BME280;5404;42.656;23.336;2023-05-02T06:09:31;95251.56;;;14.02;100.00
10706;BME280;5404;42.656;23.336;2023-05-02T06:11:57;95255.00;;;13.94;100.00
10706;BME280;5404;42.656;23.336;2023-05-02T06:14:23;95242.75;;;14.01;100.00
10706;BME280;5404;42.656;23.336;2023-05-02T06:16:48;95242.16;;;14.04;100.00
10706;BME280;5404;42.656;23.336;2023-05-02T06:19:14;95237.47;;;14.10;100.00
10706;BME280;5404;42.656;23.336;2023-05-02T06:21:39;95237.66;;;14.14;100.00
10706;BME280;5404;42.656;23.336;2023-05-02T06:24:05;95224.72;;;14.16;100.00
10706;BME280;5404;42.656;23.336;2023-05-02T06:26:30;95233.09;;;14.23;100.00
10706;BME280;5404;42.656;23.336;2023-05-02T06:28:56;95239.22;;;14.15;100.00
10706;BME280;5404;42.656;23.336;2023-05-02T06:31:21;95192.50;;;14.07;100.00
10706;BME280;5404;42.656;23.336;2023-05-02T06:33:47;95232.31;;;14.44;100.00
10706;BME280;5404;42.656;23.336;2023-05-02T06:36:13;95223.97;;;14.46;100.00
10706;BME280;5404;42.656;23.336;2023-05-02T06:38:39;95220.06;;;14.52;100.00
10706;BME280;5404;42.656;23.336;2023-05-02T06:41:05;95231.25;;;14.54;100.00
10706;BME280;5404;42.656;23.336;2023-05-02T06:43:30;95225.31;;;14.65;100.00
10706;BME280;5404;42.656;23.336;2023-05-02T06:45:57;95222.34;;;14.67;100.00
10706;BME280;5404;42.656;23.336;2023-05-02T06:48:23;95220.56;;;14.62;100.00
10706;BME280;5404;42.656;23.336;2023-05-02T06:50:50;95216.31;;;14.61;100.00
10706;BME280;5404;42.656;23.336;2023-05-02T06:53:16;95219.00;;;14.61;100.00
10706;BME280;5404;42.656;23.336;2023-05-02T06:55:42;95205.59;;;14.61;100.00
10706;BME280;5404;42.656;23.336;2023-05-02T06:58:08;95201.97;;;14.66;100.00
10706;BME280;5404;42.656;23.336;2023-05-02T07:00:33;95211.38;;;14.85;100.00
10706;BME280;5404;42.656;23.336;2023-05-02T07:02:59;95204.56;;;14.88;100.00
10706;BME280;5404;42.656;23.336;2023-05-02T07:05:25;95208.06;;;14.97;100.00
10706;BME280;5404;42.656;23.336;2023-05-02T07:07:50;95195.81;;;15.04;100.00
10706;BME280;5404;42.656;23.336;2023-05-02T07:10:16;95210.50;;;15.15;100.00
10706;BME280;5404;42.656;23.336;2023-05-02T07:12:41;95205.44;;;15.23;100.00
10706;BME280;5404;42.656;23.336;2023-05-02T07:15:08;95199.78;;;15.24;100.00
10706;BME280;5404;42.656;23.336;2023-05-02T07:17:34;95221.00;;;15.43;100.00
10706;BME280;5404;42.656;23.336;2023-05-02T07:20:00;95214.06;;;15.50;100.00
10706;BME280;5404;42.656;23.336;2023-05-02T07:22:27;95207.28;;;15.61;100.00
10706;BME280;5404;42.656;23.336;2023-05-02T07:25:00;95219.91;;;15.52;100.00
10706;BME280;5404;42.656;23.336;2023-05-02T07:27:25;95215.03;;;15.63;100.00
10706;BME280;5404;42.656;23.336;2023-05-02T07:29:51;95215.34;;;15.70;100.00
10706;BME280;5404;42.656;23.336;2023-05-02T07:32:16;95213.91;;;15.72;100.00
10706;BME280;5404;42.656;23.336;2023-05-02T07:34:42;95214.69;;;15.81;100.00
10706;BME280;5404;42.656;23.336;2023-05-02T07:37:08;95213.44;;;15.87;100.00
10706;BME280;5404;42.656;23.336;2023-05-02T07:39:34;95201.72;;;15.92;100.00
10706;BME280;5404;42.656;23.336;2023-05-02T07:41:59;95209.16;;;16.03;100.00
10706;BME280;5404;42.656;23.336;2023-05-02T07:44:25;95215.94;;;16.09;100.00
10706;BME280;5404;42.656;23.336;2023-05-02T07:46:51;95218.59;;;16.26;100.00
10706;BME280;5404;42.656;23.336;2023-05-02T07:49:18;95214.59;;;16.41;100.00
10706;BME280;5404;42.656;23.336;2023-05-02T07:51:44;95210.34;;;16.49;100.00
10706;BME280;5404;42.656;23.336;2023-05-02T07:54:20;95228.38;;;16.40;100.00
10706;BME280;5404;42.656;23.336;2023-05-02T07:56:46;95211.91;;;16.41;100.00
10706;BME280;5404;42.656;23.336;2023-05-02T07:59:12;95217.44;;;16.62;100.00
10706;BME280;5404;42.656;23.336;2023-05-02T08:01:38;95204.25;;;16.69;100.00
10706;BME280;5404;42.656;23.336;2023-05-02T08:04:04;95213.28;;;16.73;100.00
10706;BME280;5404;42.656;23.336;2023-05-02T08:06:30;95200.41;;;16.87;100.00
10706;BME280;5404;42.656;23.336;2023-05-02T08:08:59;95206.22;;;16.97;100.00
10706;BME280;5404;42.656;23.336;2023-05-02T08:11:24;95221.66;;;17.09;100.00
10706;BME280;5404;42.656;23.336;2023-05-02T08:13:50;95211.22;;;17.07;100.00
10706;BME280;5404;42.656;23.336;2023-05-02T08:16:17;95220.63;;;17.22;100.00
10706;BME280;5404;42.656;23.336;2023-05-02T08:18:42;95209.94;;;17.34;100.00
10706;BME280;5404;42.656;23.336;2023-05-02T08:21:08;95217.63;;;17.53;100.00
10706;BME280;5404;42.656;23.336;2023-05-02T08:23:34;95207.56;;;17.62;97.91
10706;BME280;5404;42.656;23.336;2023-05-02T08:26:01;95209.81;;;17.80;97.47
10706;BME280;5404;42.656;23.336;2023-05-02T08:28:26;95221.56;;;17.96;93.35
10706;BME280;5404;42.656;23.336;2023-05-02T08:30:52;95201.50;;;18.06;92.40
10706;BME280;5404;42.656;23.336;2023-05-02T08:33:17;95167.66;;;17.96;91.11
10706;BME280;5404;42.656;23.336;2023-05-02T08:35:43;95217.19;;;18.45;89.46
10706;BME280;5404;42.656;23.336;2023-05-02T08:38:08;95205.72;;;18.48;88.83
10706;BME280;5404;42.656;23.336;2023-05-02T08:40:35;95195.59;;;18.45;87.90
10706;BME280;5404;42.656;23.336;2023-05-02T08:43:02;95204.38;;;18.21;87.40
10706;BME280;5404;42.656;23.336;2023-05-02T08:45:33;95213.38;;;18.58;85.41
10706;BME280;5404;42.656;23.336;2023-05-02T08:48:07;95203.97;;;18.76;83.02
10706;BME280;5404;42.656;23.336;2023-05-02T08:50:41;95194.41;;;19.03;81.68
10706;BME280;5404;42.656;23.336;2023-05-02T08:53:10;95168.31;;;18.83;76.34
10706;BME280;5404;42.656;23.336;2023-05-02T08:55:38;95193.31;;;19.28;75.66
10706;BME280;5404;42.656;23.336;2023-05-02T08:58:05;95189.94;;;19.43;73.95
10706;BME280;5404;42.656;23.336;2023-05-02T09:00:37;95197.56;;;19.53;73.54
10706;BME280;5404;42.656;23.336;2023-05-02T09:03:28;95168.88;;;19.36;69.87
10706;BME280;5404;42.656;23.336;2023-05-02T09:06:06;95199.44;;;19.64;68.09
10706;BME280;5404;42.656;23.336;2023-05-02T09:08:33;95196.88;;;19.56;70.02
10706;BME280;5404;42.656;23.336;2023-05-02T09:11:04;95185.97;;;19.52;72.09
10706;BME280;5404;42.656;23.336;2023-05-02T09:13:37;95177.16;;;19.55;69.71
10706;BME280;5404;42.656;23.336;2023-05-02T09:16:22;95188.94;;;19.75;66.34
10706;BME280;5404;42.656;23.336;2023-05-02T09:18:54;95183.41;;;19.84;65.24
10706;BME280;5404;42.656;23.336;2023-05-02T09:21:25;95180.34;;;20.13;62.87
10706;BME280;5404;42.656;23.336;2023-05-02T09:23:55;95177.81;;;20.32;63.15
10706;BME280;5404;42.656;23.336;2023-05-02T09:26:25;95177.69;;;20.71;60.86
10706;BME280;5404;42.656;23.336;2023-05-02T09:28:54;95180.09;;;21.89;55.97
10706;BME280;5404;42.656;23.336;2023-05-02T09:31:31;95169.13;;;22.84;49.68
10706;BME280;5404;42.656;23.336;2023-05-02T09:34:14;95166.19;;;23.97;45.07
10706;BME280;5404;42.656;23.336;2023-05-02T09:36:41;95177.88;;;24.68;42.57
10706;BME280;5404;42.656;23.336;2023-05-02T09:39:18;95175.13;;;24.64;42.60
10706;BME280;5404;42.656;23.336;2023-05-02T09:41:46;95174.03;;;25.63;38.99
10706;BME280;5404;42.656;23.336;2023-05-02T09:44:16;95157.25;;;26.40;36.30
10706;BME280;5404;42.656;23.336;2023-05-02T09:46:55;95173.81;;;27.07;35.25
10706;BME280;5404;42.656;23.336;2023-05-02T09:49:56;95166.78;;;27.20;33.64
10706;BME280;5404;42.656;23.336;2023-05-02T09:52:22;95165.97;;;27.12;33.11
10706;BME280;5404;42.656;23.336;2023-05-02T09:54:47;95145.66;;;27.13;33.56
10706;BME280;5404;42.656;23.336;2023-05-02T09:57:16;95155.44;;;27.11;33.29
10706;BME280;5404;42.656;23.336;2023-05-02T09:59:55;95153.06;;;25.74;35.51
10706;BME280;5404;42.656;23.336;2023-05-02T10:02:23;95164.19;;;26.16;34.98
10706;BME280;5404;42.656;23.336;2023-05-02T10:04:49;95154.53;;;25.65;35.66
10706;BME280;5404;42.656;23.336;2023-05-02T10:07:16;95147.81;;;26.23;34.45
10706;BME280;5404;42.656;23.336;2023-05-02T10:09:44;95147.56;;;25.67;34.71
10706;BME280;5404;42.656;23.336;2023-05-02T10:12:13;95153.72;;;26.36;33.55
10706;BME280;5404;42.656;23.336;2023-05-02T10:14:40;95153.00;;;25.64;33.41
10706;BME280;5404;42.656;23.336;2023-05-02T10:17:20;95146.53;;;25.96;33.66
10706;BME280;5404;42.656;23.336;2023-05-02T10:19:59;95145.06;;;26.13;32.53
10706;BME280;5404;42.656;23.336;2023-05-02T10:22:25;95136.16;;;26.37;32.83
10706;BME280;5404;42.656;23.336;2023-05-02T10:24:54;95137.41;;;26.71;31.94
10706;BME280;5404;42.656;23.336;2023-05-02T10:27:23;95145.53;;;26.39;31.56
10706;BME280;5404;42.656;23.336;2023-05-02T10:29:50;95135.81;;;26.56;31.86
10706;BME280;5404;42.656;23.336;2023-05-02T10:32:17;95130.00;;;26.75;31.34
10706;BME280;5404;42.656;23.336;2023-05-02T10:34:45;95133.28;;;24.83;33.25
10706;BME280;5404;42.656;23.336;2023-05-02T10:37:11;95086.19;;;24.89;33.85
10706;BME280;5404;42.656;23.336;2023-05-02T10:39:36;95130.22;;;25.42;32.80
10706;BME280;5404;42.656;23.336;2023-05-02T10:42:03;95129.78;;;26.01;32.03
10706;BME280;5404;42.656;23.336;2023-05-02T10:44:37;95117.34;;;24.85;32.51
10706;BME280;5404;42.656;23.336;2023-05-02T10:49:52;95116.56;;;23.26;35.50
10706;BME280;5404;42.656;23.336;2023-05-02T10:52:34;95114.00;;;23.62;34.90
10706;BME280;5404;42.656;23.336;2023-05-02T10:55:19;95120.31;;;23.40;36.03
10706;BME280;5404;42.656;23.336;2023-05-02T11:00:27;95110.63;;;24.35;35.15
10706;BME280;5404;42.656;23.336;2023-05-02T11:02:54;95100.72;;;24.20;35.00
10706;BME280;5404;42.656;23.336;2023-05-02T11:05:21;95108.22;;;24.30;35.17
10706;BME280;5404;42.656;23.336;2023-05-02T11:07:47;95104.47;;;24.45;34.24
10706;BME280;5404;42.656;23.336;2023-05-02T11:12:48;95103.25;;;24.02;33.98
10706;BME280;5404;42.656;23.336;2023-05-02T11:15:52;95079.09;;;24.01;34.57
10706;BME280;5404;42.656;23.336;2023-05-02T11:18:14;95098.81;;;24.24;34.81
10706;BME280;5404;42.656;23.336;2023-05-02T11:20:43;95106.50;;;23.82;35.09
10706;BME280;5404;42.656;23.336;2023-05-02T11:25:51;95095.06;;;23.99;35.54
10706;BME280;5404;42.656;23.336;2023-05-02T11:31:02;95091.38;;;22.76;37.02
10706;BME280;5404;42.656;23.336;2023-05-02T11:33:29;95088.34;;;22.81;37.80
10706;BME280;5404;42.656;23.336;2023-05-02T11:35:55;95078.63;;;23.06;37.46
10706;BME280;5404;42.656;23.336;2023-05-02T11:38:25;95092.72;;;22.89;38.58
10706;BME280;5404;42.656;23.336;2023-05-02T11:40:54;95075.53;;;22.82;38.62
10706;BME280;5404;42.656;23.336;2023-05-02T11:43:22;95088.16;;;22.71;38.30
10706;BME280;5404;42.656;23.336;2023-05-02T11:45:49;95071.69;;;22.60;38.33
10706;BME280;5404;42.656;23.336;2023-05-02T11:48:17;95071.69;;;22.60;38.85
10706;BME280;5404;42.656;23.336;2023-05-02T11:50:50;95072.09;;;21.98;39.71
10706;BME280;5404;42.656;23.336;2023-05-02T11:53:19;95071.03;;;22.44;39.11
10706;BME280;5404;42.656;23.336;2023-05-02T11:55:53;95076.66;;;22.81;38.42
10706;BME280;5404;42.656;23.336;2023-05-02T11:58:21;95073.91;;;22.55;38.26
10706;BME280;5404;42.656;23.336;2023-05-02T12:00:49;95060.56;;;22.69;38.65
10706;BME280;5404;42.656;23.336;2023-05-02T12:03:31;95032.28;;;22.25;38.67
10706;BME280;5404;42.656;23.336;2023-05-02T12:06:13;95062.66;;;21.16;40.56
10706;BME280;5404;42.656;23.336;2023-05-02T12:08:42;95054.91;;;21.52;41.63
10706;BME280;5404;42.656;23.336;2023-05-02T12:11:08;95056.78;;;21.86;41.54
10706;BME280;5404;42.656;23.336;2023-05-02T12:13:34;95047.28;;;22.19;40.77
10706;BME280;5404;42.656;23.336;2023-05-02T12:15:59;95044.94;;;22.17;40.67
10706;BME280;5404;42.656;23.336;2023-05-02T12:18:25;95047.03;;;21.82;39.91
10706;BME280;5404;42.656;23.336;2023-05-02T12:20:55;95051.91;;;21.57;41.91
10706;BME280;5404;42.656;23.336;2023-05-02T12:23:23;95038.78;;;21.98;41.47
10706;BME280;5404;42.656;23.336;2023-05-02T12:25:49;95004.81;;;22.07;39.81
10706;BME280;5404;42.656;23.336;2023-05-02T12:28:17;95030.19;;;22.60;40.03
10706;BME280;5404;42.656;23.336;2023-05-02T12:30:46;95019.75;;;22.65;39.62
10706;BME280;5404;42.656;23.336;2023-05-02T12:33:14;95027.56;;;22.44;39.56
10706;BME280;5404;42.656;23.336;2023-05-02T12:35:42;95020.97;;;22.68;39.26
10706;BME280;5404;42.656;23.336;2023-05-02T12:38:13;95019.66;;;23.10;39.11
10706;BME280;5404;42.656;23.336;2023-05-02T12:40:46;95025.44;;;22.57;39.02
10706;BME280;5404;42.656;23.336;2023-05-02T12:43:12;95009.16;;;23.09;37.96
10706;BME280;5404;42.656;23.336;2023-05-02T12:45:38;95016.09;;;23.33;37.10
10706;BME280;5404;42.656;23.336;2023-05-02T12:48:25;95005.22;;;23.66;37.10
10706;BME280;5404;42.656;23.336;2023-05-02T12:50:52;95001.53;;;23.84;36.40
10706;BME280;5404;42.656;23.336;2023-05-02T12:53:42;95005.97;;;23.99;36.24
10706;BME280;5404;42.656;23.336;2023-05-02T12:56:08;95010.03;;;23.79;35.50
10706;BME280;5404;42.656;23.336;2023-05-02T12:58:45;94995.22;;;23.40;35.35
10706;BME280;5404;42.656;23.336;2023-05-02T13:01:11;95005.00;;;23.19;36.48
10706;BME280;5404;42.656;23.336;2023-05-02T13:03:37;95004.81;;;23.04;36.45
10706;BME280;5404;42.656;23.336;2023-05-02T13:06:03;94994.91;;;22.63;37.32
10706;BME280;5404;42.656;23.336;2023-05-02T13:08:28;95005.25;;;22.32;37.97
10706;BME280;5404;42.656;23.336;2023-05-02T13:10:54;95014.47;;;21.82;39.26
10706;BME280;5404;42.656;23.336;2023-05-02T13:13:20;95008.44;;;21.92;38.81
10706;BME280;5404;42.656;23.336;2023-05-02T13:15:46;95004.28;;;22.21;38.72
10706;BME280;5404;42.656;23.336;2023-05-02T13:18:12;95017.94;;;22.73;38.02
10706;BME280;5404;42.656;23.336;2023-05-02T13:20:37;95004.31;;;22.95;36.83
10706;BME280;5404;42.656;23.336;2023-05-02T13:23:03;95013.00;;;23.34;35.73
10706;BME280;5404;42.656;23.336;2023-05-02T13:25:29;95018.78;;;22.77;35.85
10706;BME280;5404;42.656;23.336;2023-05-02T13:27:55;95006.56;;;22.90;35.62
10706;BME280;5404;42.656;23.336;2023-05-02T13:30:20;94990.84;;;22.76;36.02
10706;BME280;5404;42.656;23.336;2023-05-02T13:32:46;95010.09;;;23.24;35.37
10706;BME280;5404;42.656;23.336;2023-05-02T13:35:11;94999.13;;;23.43;35.73